createdAt,value
2022-08-26T00:02:12.825Z,96677.71
2022-08-26T00:04:45.702Z,96674.33
2022-08-26T00:07:14.638Z,96675.35
2022-08-26T00:09:43.031Z,96674.45
2022-08-26T00:12:20.850Z,96677.25
2022-08-26T00:15:02.699Z,96676.98
2022-08-26T00:17:30.986Z,96670.82
2022-08-26T00:19:59.419Z,96673.77
2022-08-26T00:22:37.314Z,96666.35
2022-08-26T00:25:08.115Z,96667.86
2022-08-26T00:27:37.440Z,96667.61
2022-08-26T00:30:17.367Z,96666.59
2022-08-26T00:32:51.605Z,96665.21
2022-08-26T00:35:28.053Z,96663.58
2022-08-26T00:38:00.760Z,96665.34
2022-08-26T00:40:37.570Z,96663.46
2022-08-26T00:43:17.878Z,96662.17
2022-08-26T00:45:57.436Z,96665.73
2022-08-26T00:48:45.217Z,96663.80
2022-08-26T00:51:20.380Z,96666.60
2022-08-26T00:53:52.718Z,96666.86
2022-08-26T00:56:40.889Z,96664.39
2022-08-26T00:59:13.399Z,96667.23
2022-08-26T01:01:44.134Z,96661.58
2022-08-26T01:04:26.020Z,96663.02
2022-08-26T01:08:03.608Z,96661.81
2022-08-26T01:10:32.191Z,96665.35
2022-08-26T01:13:07.293Z,96670.14
2022-08-26T01:15:45.056Z,96668.64
2022-08-26T01:18:14.925Z,96673.70
2022-08-26T01:21:20.782Z,96673.11
2022-08-26T01:23:57.292Z,96672.73
2022-08-26T01:26:38.196Z,96670.70
2022-08-26T01:29:07.226Z,96672.19
2022-08-26T01:34:35.169Z,96676.40
2022-08-26T01:37:22.304Z,96675.39
2022-08-26T01:40:00.739Z,96676.97
2022-08-26T01:42:30.028Z,96672.77
2022-08-26T01:45:06.072Z,96674.42
2022-08-26T01:47:36.963Z,96671.58
2022-08-26T01:50:28.046Z,96673.54
2022-08-26T01:53:11.906Z,96675.45
2022-08-26T01:56:06.093Z,96671.61
2022-08-26T01:58:51.991Z,96672.09
2022-08-26T02:01:24.216Z,96671.27
2022-08-26T02:04:40.101Z,96670.54
2022-08-26T02:07:10.123Z,96672.02
2022-08-26T02:09:41.265Z,96671.35
2022-08-26T02:12:17.471Z,96671.08
2022-08-26T02:14:52.305Z,96667.73
2022-08-26T02:17:44.223Z,96670.40
2022-08-26T02:20:18.091Z,96668.19
2022-08-26T02:22:48.569Z,96665.94
2022-08-26T02:25:56.458Z,96671.98
2022-08-26T02:28:31.495Z,96674.02
2022-08-26T02:31:06.592Z,96675.56
2022-08-26T02:33:37.500Z,96675.92
2022-08-26T02:36:13.524Z,96677.29
2022-08-26T02:38:47.747Z,96675.88
2022-08-26T02:41:34.695Z,96671.41
2022-08-26T02:44:22.646Z,96668.79
2022-08-26T02:46:54.204Z,96670.35
2022-08-26T02:52:12.903Z,96667.88
2022-08-26T02:55:01.849Z,96667.46
2022-08-26T02:57:38.767Z,96664.52
2022-08-26T03:00:12.689Z,96667.90
2022-08-26T03:02:43.761Z,96667.95
2022-08-26T03:05:44.800Z,96665.60
2022-08-26T03:08:23.331Z,96673.05
2022-08-26T03:13:44.418Z,96667.88
2022-08-26T03:16:23.639Z,96671.38
2022-08-26T03:18:54.381Z,96672.75
2022-08-26T03:24:47.425Z,96677.07
2022-08-26T03:27:16.803Z,96678.80
2022-08-26T03:30:04.659Z,96677.54
2022-08-26T03:32:35.881Z,96675.33
2022-08-26T03:35:10.138Z,96676.48
2022-08-26T03:37:41.624Z,96676.96
2022-08-26T03:40:21.122Z,96676.06
2022-08-26T03:42:53.973Z,96674.92
2022-08-26T03:45:22.578Z,96676.59
2022-08-26T03:47:53.594Z,96676.55
2022-08-26T03:50:38.697Z,96679.73
2022-08-26T03:53:14.409Z,96679.11
2022-08-26T03:55:46.192Z,96681.46
2022-08-26T03:58:15.125Z,96684.66
2022-08-26T04:00:43.566Z,96682.63
2022-08-26T04:03:18.608Z,96682.41
2022-08-26T04:05:54.528Z,96683.66
2022-08-26T04:08:25.162Z,96680.16
2022-08-26T04:11:00.821Z,96678.42
2022-08-26T04:13:31.184Z,96679.38
2022-08-26T04:16:01.121Z,96678.27
2022-08-26T04:18:37.080Z,96680.15
2022-08-26T04:21:10.296Z,96675.23
2022-08-26T04:24:03.588Z,96676.06
2022-08-26T04:26:39.471Z,96675.33
2022-08-26T04:29:25.853Z,96675.97
2022-08-26T04:31:56.022Z,96679.41
2022-08-26T04:34:29.340Z,96676.27
2022-08-26T04:36:58.544Z,96680.63
2022-08-26T04:39:41.180Z,96679.63
2022-08-26T04:42:14.255Z,96680.04
2022-08-26T04:44:48.412Z,96678.92
2022-08-26T04:47:19.816Z,96675.67
2022-08-26T04:49:56.634Z,96675.25
2022-08-26T04:52:33.155Z,96676.08
2022-08-26T04:55:02.244Z,96674.86
2022-08-26T04:57:43.022Z,96685.63
2022-08-26T05:00:28.801Z,96681.16
2022-08-26T05:02:57.921Z,96682.98
2022-08-26T05:05:29.406Z,96681.67
2022-08-26T05:07:57.855Z,96678.48
2022-08-26T05:10:26.148Z,96685.94
2022-08-26T05:12:55.260Z,96682.82
2022-08-26T05:15:24.758Z,96683.80
2022-08-26T05:17:53.899Z,96682.91
2022-08-26T05:20:25.676Z,96685.21
2022-08-26T05:22:54.620Z,96684.20
2022-08-26T05:25:24.179Z,96687.19
2022-08-26T05:27:55.676Z,96692.33
2022-08-26T05:30:24.406Z,96695.30
2022-08-26T05:32:55.365Z,96686.40
2022-08-26T05:35:23.872Z,96690.87
2022-08-26T05:37:52.350Z,96687.55
2022-08-26T05:40:21.416Z,96686.94
2022-08-26T05:42:50.123Z,96688.64
2022-08-26T05:45:18.692Z,96690.04
2022-08-26T05:47:50.392Z,96693.83
2022-08-26T05:50:25.616Z,96692.82
2022-08-26T05:52:54.283Z,96689.77
2022-08-26T05:55:23.503Z,96688.08
2022-08-26T05:57:52.580Z,96688.41
2022-08-26T06:00:21.983Z,96684.05
2022-08-26T06:02:50.837Z,96687.27
2022-08-26T06:05:21.693Z,96688.67
2022-08-26T06:08:09.029Z,96685.33
2022-08-26T06:10:54.308Z,96687.39
2022-08-26T06:13:27.486Z,96682.70
2022-08-26T06:16:04.939Z,96682.42
2022-08-26T06:18:36.932Z,96684.10
2022-08-26T06:21:19.967Z,96683.55
2022-08-26T06:24:09.897Z,96680.88
2022-08-26T06:26:38.181Z,96684.05
2022-08-26T06:29:07.531Z,96683.77
2022-08-26T06:31:37.335Z,96685.01
2022-08-26T06:34:10.881Z,96688.21
2022-08-26T06:36:43.842Z,96684.37
2022-08-26T06:39:15.214Z,96687.34
2022-08-26T06:41:45.237Z,96691.55
2022-08-26T06:44:19.481Z,96693.21
2022-08-26T06:46:50.531Z,96689.08
2022-08-26T06:49:25.833Z,96687.71
2022-08-26T06:51:59.018Z,96687.08
2022-08-26T06:54:31.873Z,96688.89
2022-08-26T06:57:01.288Z,96688.43
2022-08-26T06:59:31.547Z,96693.89
2022-08-26T07:02:00.266Z,96689.80
2022-08-26T07:04:30.587Z,96686.48
2022-08-26T07:06:59.298Z,96684.76
2022-08-26T07:09:32.601Z,96680.33
2022-08-26T07:12:01.932Z,96676.67
2022-08-26T07:14:31.829Z,96675.71
2022-08-26T07:17:02.766Z,96671.89
2022-08-26T07:19:31.898Z,96669.83
2022-08-26T07:22:05.228Z,96666.26
2022-08-26T07:24:36.479Z,96666.64
2022-08-26T07:27:10.608Z,96663.66
2022-08-26T07:29:40.718Z,96660.69
2022-08-26T07:32:10.351Z,96663.92
2022-08-26T07:34:39.542Z,96657.20
2022-08-26T07:37:10.298Z,96655.73
2022-08-26T07:39:43.152Z,96654.87
2022-08-26T07:42:14.424Z,96649.73
2022-08-26T07:44:43.881Z,96650.83
2022-08-26T07:47:24.694Z,96649.58
2022-08-26T07:49:56.642Z,96646.63
2022-08-26T07:52:30.008Z,96651.04
2022-08-26T07:55:00.070Z,96646.09
2022-08-26T07:57:29.565Z,96645.00
2022-08-26T07:59:59.173Z,96645.05
2022-08-26T08:02:29.951Z,96642.86
2022-08-26T08:04:59.601Z,96644.14
2022-08-26T08:07:44.190Z,96634.73
2022-08-26T08:10:18.718Z,96630.30
2022-08-26T08:12:57.778Z,96630.27
2022-08-26T08:15:33.727Z,96624.81
2022-08-26T08:18:07.376Z,96627.63
2022-08-26T08:21:04.846Z,96625.38
2022-08-26T08:23:34.802Z,96621.66
2022-08-26T08:26:13.426Z,96617.84
2022-08-26T08:28:48.190Z,96613.36
2022-08-26T08:31:55.808Z,96608.65
2022-08-26T08:34:16.189Z,96606.46
2022-08-26T08:36:49.929Z,96604.93
2022-08-26T08:39:23.516Z,96604.45
2022-08-26T08:42:32.535Z,96604.31
2022-08-26T08:45:10.684Z,96601.80
2022-08-26T08:47:49.626Z,96601.45
2022-08-26T08:50:38.884Z,96597.21
2022-08-26T08:53:36.906Z,96595.09
2022-08-26T08:56:13.719Z,96594.36
2022-08-26T08:59:19.141Z,96592.49
2022-08-26T09:01:54.172Z,96594.64
2022-08-26T09:07:37.530Z,96588.97
2022-08-26T09:10:40.946Z,96585.27
2022-08-26T09:13:25.117Z,96583.13
2022-08-26T09:19:30.504Z,96581.73
2022-08-26T09:22:04.683Z,96581.46
2022-08-26T09:24:41.776Z,96577.63
2022-08-26T09:27:40.337Z,96570.35
2022-08-26T09:30:11.373Z,96572.11
2022-08-26T09:32:55.921Z,96570.65
2022-08-26T09:35:31.795Z,96565.80
2022-08-26T09:38:00.693Z,96563.98
2022-08-26T09:40:34.526Z,96560.30
2022-08-26T09:43:22.720Z,96557.84
2022-08-26T09:45:59.077Z,96552.94
2022-08-26T09:48:40.691Z,96552.10
2022-08-26T09:51:23.246Z,96548.94
2022-08-26T09:53:59.060Z,96551.23
2022-08-26T09:56:39.359Z,96550.98
2022-08-26T09:59:12.199Z,96549.91
2022-08-26T10:01:50.009Z,96550.36
2022-08-26T10:04:38.699Z,96548.30
2022-08-26T10:07:09.605Z,96538.21
2022-08-26T10:09:43.226Z,96535.14
2022-08-26T10:12:21.955Z,96535.61
2022-08-26T10:14:56.535Z,96538.88
2022-08-26T10:17:36.750Z,96532.90
2022-08-26T10:20:22.654Z,96532.52
2022-08-26T10:23:02.976Z,96529.92
2022-08-26T10:25:52.727Z,96526.64
2022-08-26T10:28:27.073Z,96522.25
2022-08-26T10:31:38.200Z,96522.79
2022-08-26T10:34:18.530Z,96519.94
2022-08-26T10:37:13.937Z,96517.26
2022-08-26T10:39:59.245Z,96518.83
2022-08-26T10:42:37.610Z,96516.73
2022-08-26T10:45:22.380Z,96516.83
2022-08-26T10:48:00.625Z,96511.23
2022-08-26T10:50:37.347Z,96515.73
2022-08-26T10:53:17.836Z,96515.75
2022-08-26T10:56:06.259Z,96510.34
2022-08-26T10:59:12.661Z,96506.88
2022-08-26T11:02:12.994Z,96503.75
2022-08-26T11:05:03.360Z,96504.13
2022-08-26T11:07:46.476Z,96502.32
2022-08-26T11:10:20.840Z,96503.67
2022-08-26T11:13:07.250Z,96499.08
2022-08-26T11:15:38.901Z,96494.54
2022-08-26T11:18:13.649Z,96488.70
2022-08-26T11:20:45.246Z,96490.11
2022-08-26T11:23:16.992Z,96490.09
2022-08-26T11:26:11.017Z,96489.31
2022-08-26T11:28:44.846Z,96497.67
2022-08-26T11:31:38.733Z,96495.05
2022-08-26T11:34:21.212Z,96494.59
2022-08-26T11:36:57.021Z,96498.11
2022-08-26T11:39:54.456Z,96499.15
2022-08-26T11:42:41.715Z,96499.48
2022-08-26T11:45:22.887Z,96498.30
2022-08-26T11:47:52.764Z,96495.69
2022-08-26T11:50:26.252Z,96491.50
2022-08-26T11:53:04.637Z,96484.26
2022-08-26T11:55:41.991Z,96484.77
2022-08-26T11:58:12.691Z,96481.16
2022-08-26T12:00:58.151Z,96478.63
2022-08-26T12:03:54.041Z,96478.16
2022-08-26T12:06:30.818Z,96473.77
2022-08-26T12:09:02.771Z,96473.64
2022-08-26T12:11:39.255Z,96467.18
2022-08-26T12:14:20.827Z,96465.86
2022-08-26T12:16:49.342Z,96465.16
2022-08-26T12:19:33.931Z,96462.38
2022-08-26T12:22:07.102Z,96459.89
2022-08-26T12:24:44.358Z,96459.33
2022-08-26T12:27:25.338Z,96458.88
2022-08-26T12:30:08.439Z,96454.56
2022-08-26T12:32:55.138Z,96453.98
2022-08-26T12:35:29.518Z,96453.52
2022-08-26T12:37:58.922Z,96449.69
2022-08-26T12:40:46.351Z,96446.14
2022-08-26T12:43:48.039Z,96445.65
2022-08-26T12:46:27.239Z,96446.54
2022-08-26T12:49:05.163Z,96443.14
2022-08-26T12:51:35.655Z,96443.10
2022-08-26T12:54:43.410Z,96439.52
2022-08-26T13:00:16.166Z,96440.16
2022-08-26T13:02:52.768Z,96442.94
2022-08-26T13:05:22.980Z,96441.63
2022-08-26T13:08:15.712Z,96439.96
2022-08-26T13:10:46.486Z,96440.00
2022-08-26T13:13:38.690Z,96441.67
2022-08-26T13:18:53.694Z,96437.91
2022-08-26T13:21:27.681Z,96432.14
2022-08-26T13:23:59.253Z,96432.63
2022-08-26T13:26:29.297Z,96428.36
2022-08-26T13:29:10.534Z,96429.95
2022-08-26T13:34:31.612Z,96423.25
2022-08-26T13:37:00.588Z,96423.42
2022-08-26T13:39:29.774Z,96420.95
2022-08-26T13:42:08.260Z,96419.04
2022-08-26T13:44:55.607Z,96417.09
2022-08-26T13:47:27.746Z,96416.59
2022-08-26T13:52:42.287Z,96423.08
2022-08-26T13:55:25.144Z,96420.39
2022-08-26T13:57:55.381Z,96425.73
2022-08-26T14:00:36.230Z,96419.81
2022-08-26T14:03:12.600Z,96423.22
2022-08-26T14:05:44.097Z,96423.13
2022-08-26T14:08:12.254Z,96420.70
2022-08-26T14:13:27.218Z,96415.52
2022-08-26T14:15:58.860Z,96417.75
2022-08-26T14:18:38.493Z,96414.30
2022-08-26T14:21:12.538Z,96408.11
2022-08-26T14:23:42.715Z,96408.77
2022-08-26T14:26:14.368Z,96404.19
2022-08-26T14:28:59.750Z,96403.64
2022-08-26T14:31:57.315Z,96400.92
2022-08-26T14:34:42.983Z,96399.77
2022-08-26T14:42:58.799Z,96395.74
2022-08-26T14:45:30.643Z,96390.90
2022-08-26T14:48:03.003Z,96391.88
2022-08-26T14:50:38.896Z,96389.83
2022-08-26T14:53:25.478Z,96386.92
2022-08-26T14:55:53.950Z,96388.32
2022-08-26T14:58:34.898Z,96392.23
2022-08-26T15:01:12.628Z,96394.92
2022-08-26T15:03:41.089Z,96394.86
2022-08-26T15:06:10.449Z,96393.90
2022-08-26T15:08:40.220Z,96389.52
2022-08-26T15:11:31.039Z,96391.19
2022-08-26T15:14:05.353Z,96391.20
2022-08-26T15:16:34.187Z,96387.29
2022-08-26T15:19:07.008Z,96388.60
2022-08-26T15:21:36.103Z,96389.56
2022-08-26T15:24:04.901Z,96388.08
2022-08-26T15:26:35.213Z,96392.18
2022-08-26T15:29:05.238Z,96385.52
2022-08-26T15:31:33.710Z,96384.13
2022-08-26T15:34:22.478Z,96386.38
2022-08-26T15:36:50.706Z,96384.45
2022-08-26T15:39:19.979Z,96381.02
2022-08-26T15:41:50.420Z,96381.86
2022-08-26T15:44:19.311Z,96379.25
2022-08-26T15:46:48.154Z,96376.79
2022-08-26T15:49:17.749Z,96375.61
2022-08-26T15:51:49.365Z,96374.77
2022-08-26T15:54:19.766Z,96375.19
2022-08-26T15:56:50.697Z,96374.05
2022-08-26T15:59:29.897Z,96372.92
2022-08-26T16:01:59.271Z,96373.16
2022-08-26T16:04:27.818Z,96369.61
2022-08-26T16:07:05.840Z,96367.75
2022-08-26T16:09:34.427Z,96360.13
2022-08-26T16:12:05.370Z,96359.98
2022-08-26T16:14:33.643Z,96367.50
2022-08-26T16:17:01.709Z,96365.77
2022-08-26T16:19:38.880Z,96361.41
2022-08-26T16:22:18.931Z,96360.46
2022-08-26T16:24:48.462Z,96359.52
2022-08-26T16:27:17.931Z,96358.44
2022-08-26T16:29:53.723Z,96359.39
2022-08-26T16:32:22.423Z,96360.72
2022-08-26T16:37:35.478Z,96359.73
2022-08-26T16:40:07.042Z,96359.34
2022-08-26T16:42:35.351Z,96357.09
2022-08-26T16:45:04.578Z,96355.02
2022-08-26T16:47:33.569Z,96360.16
2022-08-26T16:50:02.240Z,96354.84
2022-08-26T16:52:33.163Z,96356.42
2022-08-26T16:55:01.357Z,96354.27
2022-08-26T16:57:29.471Z,96350.94
2022-08-26T16:59:57.757Z,96348.51
2022-08-26T17:02:25.853Z,96351.20
2022-08-26T17:04:54.905Z,96356.06
2022-08-26T17:10:13.161Z,96358.14
2022-08-26T17:12:41.323Z,96361.46
2022-08-26T17:15:19.048Z,96359.51
2022-08-26T17:17:47.272Z,96358.17
2022-08-26T17:20:16.394Z,96359.96
2022-08-26T17:22:47.361Z,96361.73
2022-08-26T17:25:25.933Z,96361.02
2022-08-26T17:30:26.059Z,96363.57
2022-08-26T17:32:55.367Z,96365.79
2022-08-26T17:35:24.180Z,96364.08
2022-08-26T17:37:52.898Z,96362.38
2022-08-26T17:40:22.370Z,96362.09
2022-08-26T17:42:52.771Z,96362.24
2022-08-26T17:45:21.314Z,96362.78
2022-08-26T17:47:50.857Z,96365.20
2022-08-26T17:50:19.500Z,96367.75
2022-08-26T17:52:52.985Z,96373.70
2022-08-26T17:55:22.051Z,96379.42
2022-08-26T17:57:53.174Z,96380.21
2022-08-26T18:00:22.787Z,96378.77
2022-08-26T18:02:50.928Z,96378.14
2022-08-26T18:05:19.694Z,96377.75
2022-08-26T18:07:49.081Z,96380.02
2022-08-26T18:10:21.138Z,96376.20
2022-08-26T18:12:49.260Z,96378.30
2022-08-26T18:15:17.606Z,96372.60
2022-08-26T18:17:45.987Z,96377.22
2022-08-26T18:20:15.981Z,96375.30
2022-08-26T18:22:46.729Z,96378.13
2022-08-26T18:25:15.534Z,96377.13
2022-08-26T18:27:43.856Z,96377.86
2022-08-26T18:30:16.727Z,96375.92
2022-08-26T18:33:06.930Z,96381.62
2022-08-26T18:35:42.918Z,96382.35
2022-08-26T18:38:12.007Z,96381.45
2022-08-26T18:41:05.727Z,96379.27
2022-08-26T18:43:35.531Z,96377.38
2022-08-26T18:46:06.135Z,96377.27
2022-08-26T18:48:35.670Z,96378.02
2022-08-26T18:51:20.004Z,96380.27
2022-08-26T18:53:53.037Z,96376.16
2022-08-26T18:56:26.759Z,96374.96
2022-08-26T18:59:04.057Z,96373.80
2022-08-26T19:01:40.936Z,96372.92
2022-08-26T19:04:23.475Z,96373.55
2022-08-26T19:06:54.855Z,96375.65
2022-08-26T19:09:36.044Z,96386.63
2022-08-26T19:12:07.167Z,96388.16
2022-08-26T19:14:37.477Z,96389.92
2022-08-26T19:17:22.623Z,96386.67
2022-08-26T19:19:54.199Z,96386.35
2022-08-26T19:22:22.675Z,96387.58
2022-08-26T19:24:56.492Z,96389.77
2022-08-26T19:27:26.098Z,96391.88
2022-08-26T19:29:57.991Z,96391.73
2022-08-26T19:32:28.219Z,96396.23
2022-08-26T19:35:18.600Z,96394.31
2022-08-26T19:37:47.032Z,96394.28
2022-08-26T19:40:18.156Z,96394.56
2022-08-26T19:42:52.663Z,96394.77
2022-08-26T19:45:31.314Z,96394.44
2022-08-26T19:48:00.801Z,96397.36
2022-08-26T19:50:34.281Z,96397.22
2022-08-26T19:53:12.138Z,96395.38
2022-08-26T19:58:27.393Z,96401.29
2022-08-26T20:01:02.119Z,96401.79
2022-08-26T20:03:30.377Z,96404.65
2022-08-26T20:06:05.523Z,96404.79
2022-08-26T20:08:43.592Z,96404.05
2022-08-26T20:11:15.776Z,96404.74
2022-08-26T20:13:46.692Z,96408.97
2022-08-26T20:16:17.527Z,96404.45
2022-08-26T20:19:08.065Z,96403.08
2022-08-26T20:21:45.665Z,96407.52
2022-08-26T20:24:17.987Z,96408.93
2022-08-26T20:29:35.845Z,96404.89
2022-08-26T20:32:07.974Z,96409.67
2022-08-26T20:34:37.394Z,96405.75
2022-08-26T20:37:06.459Z,96407.77
2022-08-26T20:39:37.201Z,96410.51
2022-08-26T20:42:07.008Z,96415.94
2022-08-26T20:44:54.755Z,96420.70
2022-08-26T20:47:23.755Z,96424.81
2022-08-26T20:49:53.073Z,96422.73
2022-08-26T20:52:21.807Z,96418.20
2022-08-26T20:54:50.984Z,96420.44
2022-08-26T20:57:23.158Z,96415.64
2022-08-26T20:59:52.812Z,96414.31
2022-08-26T21:02:26.408Z,96410.95
2022-08-26T21:04:58.103Z,96413.15
2022-08-26T21:07:26.955Z,96408.94
2022-08-26T21:09:59.989Z,96411.24
2022-08-26T21:12:28.677Z,96416.71
2022-08-26T21:15:01.173Z,96417.05
2022-08-26T21:17:42.759Z,96423.77
2022-08-26T21:20:16.340Z,96425.80
2022-08-26T21:22:48.913Z,96425.67
2022-08-26T21:25:27.077Z,96423.14
2022-08-26T21:27:56.543Z,96429.06
2022-08-26T21:30:25.005Z,96430.45
2022-08-26T21:32:55.195Z,96426.00
2022-08-26T21:35:24.268Z,96430.98
2022-08-26T21:37:55.610Z,96431.52
2022-08-26T21:40:32.492Z,96432.75
2022-08-26T21:43:27.770Z,96432.48
2022-08-26T21:46:28.287Z,96431.23
2022-08-26T21:49:00.734Z,96427.85
2022-08-26T21:51:35.094Z,96424.19
2022-08-26T21:54:10.524Z,96427.66
2022-08-26T21:56:47.417Z,96425.66
2022-08-26T21:59:17.334Z,96424.39
2022-08-26T22:02:13.728Z,96431.95
2022-08-26T22:04:48.548Z,96430.33
2022-08-26T22:07:25.348Z,96432.89
2022-08-26T22:09:55.012Z,96436.98
2022-08-26T22:12:23.432Z,96433.91
2022-08-26T22:14:51.627Z,96435.84
2022-08-26T22:17:21.466Z,96431.48
2022-08-26T22:20:16.613Z,96429.11
2022-08-26T22:22:45.956Z,96431.36
2022-08-26T22:25:16.911Z,96428.34
2022-08-26T22:27:50.198Z,96433.92
2022-08-26T22:30:20.991Z,96430.46
2022-08-26T22:32:49.931Z,96433.20
2022-08-26T22:35:28.124Z,96428.19
2022-08-26T22:38:09.126Z,96426.85
2022-08-26T22:40:47.364Z,96425.95
2022-08-26T22:43:17.745Z,96426.27
2022-08-26T22:45:51.137Z,96427.13
2022-08-26T22:48:20.957Z,96431.05
2022-08-26T22:50:51.960Z,96430.02
2022-08-26T22:53:30.280Z,96429.23
2022-08-26T22:56:13.746Z,96427.89
2022-08-26T22:58:44.996Z,96431.04
2022-08-26T23:01:17.442Z,96429.89
2022-08-26T23:03:47.478Z,96432.23
2022-08-26T23:06:20.038Z,96428.81
2022-08-26T23:08:48.759Z,96427.46
2022-08-26T23:11:17.585Z,96430.34
2022-08-26T23:13:46.817Z,96428.47
2022-08-26T23:16:16.130Z,96432.36
2022-08-26T23:18:44.313Z,96433.73
2022-08-26T23:21:12.771Z,96434.45
2022-08-26T23:23:45.095Z,96433.86
2022-08-26T23:26:17.671Z,96435.04
2022-08-26T23:28:47.374Z,96437.87
2022-08-26T23:31:29.660Z,96433.43
2022-08-26T23:34:17.720Z,96436.13
2022-08-26T23:36:46.334Z,96434.48
2022-08-26T23:39:15.694Z,96434.96
2022-08-26T23:41:43.980Z,96430.79
2022-08-26T23:44:12.977Z,96427.94
2022-08-26T23:46:43.311Z,96430.77
2022-08-26T23:49:11.856Z,96428.55
2022-08-26T23:51:58.747Z,96429.87
2022-08-26T23:57:12.919Z,96429.98
2022-08-26T23:59:42.672Z,96428.23
